createdAt,value
2018-04-26T00:00:33.827Z,6.3
2018-04-26T00:01:34.565Z,8.7
2018-04-26T00:02:35.387Z,5.5
2018-04-26T00:03:36.106Z,7.9
2018-04-26T00:04:36.836Z,12.3
2018-04-26T00:05:37.565Z,11.3
2018-04-26T00:06:38.289Z,4.3
2018-04-26T00:07:39.012Z,8.2
2018-04-26T00:08:39.769Z,8.6
2018-04-26T00:09:40.590Z,7.2
2018-04-26T00:10:41.298Z,8.8
2018-04-26T00:11:42.059Z,13.4
2018-04-26T00:12:42.831Z,12.7
2018-04-26T00:13:43.582Z,8.2
2018-04-26T00:14:44.321Z,8.9
2018-04-26T00:15:45.092Z,12.9
2018-04-26T00:16:45.889Z,10.7
2018-04-26T00:17:46.634Z,16.5
2018-04-26T00:18:47.433Z,8.9
2018-04-26T00:19:48.161Z,8.8
2018-04-26T00:20:48.873Z,10.3
2018-04-26T00:21:49.622Z,11.2
2018-04-26T00:22:50.412Z,11.5
2018-04-26T00:23:51.116Z,14.7
2018-04-26T00:24:51.895Z,12.3
2018-04-26T00:25:52.638Z,9.1
2018-04-26T00:26:53.359Z,11.4
2018-04-26T00:27:54.104Z,12.6
2018-04-26T00:28:54.852Z,7.9
2018-04-26T00:29:55.572Z,10.4
2018-04-26T00:30:56.373Z,6.5
2018-04-26T00:31:57.161Z,8.8
2018-04-26T00:32:57.895Z,10.3
2018-04-26T00:33:58.627Z,7.7
2018-04-26T00:34:59.365Z,11.4
2018-04-26T00:36:00.167Z,10.5
2018-04-26T00:37:00.905Z,12.3
2018-04-26T00:38:01.635Z,8.6
2018-04-26T00:39:02.374Z,8.7
2018-04-26T00:40:03.211Z,12.9
2018-04-26T00:41:04.012Z,11.6
2018-04-26T00:42:04.749Z,11.8
2018-04-26T00:43:05.473Z,13.9
2018-04-26T00:44:06.204Z,10.2
2018-04-26T00:45:07.004Z,24.4
2018-04-26T00:46:07.746Z,9.6
2018-04-26T00:47:08.479Z,18.8
2018-04-26T00:48:09.205Z,12.9
2018-04-26T00:49:10.005Z,10.5
2018-04-26T00:50:10.725Z,13.7
2018-04-26T00:51:11.857Z,11.2
2018-04-26T00:52:12.591Z,11.6
2018-04-26T00:53:13.344Z,10.0
2018-04-26T00:54:14.090Z,11.2
2018-04-26T00:55:14.812Z,9.3
2018-04-26T00:56:15.645Z,16.2
2018-04-26T00:57:16.381Z,10.6
2018-04-26T00:58:17.099Z,8.1
2018-04-26T00:59:17.820Z,9.8
2018-04-26T01:00:18.626Z,8.4
2018-04-26T01:01:19.361Z,18.0
2018-04-26T01:02:20.248Z,10.3
2018-04-26T01:03:20.989Z,9.6
2018-04-26T01:04:21.794Z,9.2
2018-04-26T01:05:22.512Z,6.4
2018-04-26T01:06:23.250Z,12.2
2018-04-26T01:07:23.970Z,13.3
2018-04-26T01:08:24.758Z,17.3
2018-04-26T01:09:25.474Z,10.1
2018-04-26T01:10:26.228Z,8.1
2018-04-26T01:11:27.032Z,8.9
2018-04-26T01:12:27.840Z,14.3
2018-04-26T01:13:28.622Z,13.3
2018-04-26T01:14:29.360Z,15.0
2018-04-26T01:15:30.108Z,8.2
2018-04-26T01:16:30.900Z,12.8
2018-04-26T01:17:31.625Z,12.6
2018-04-26T01:18:32.425Z,8.4
2018-04-26T01:19:33.157Z,11.5
2018-04-26T01:20:33.884Z,15.5
2018-04-26T01:21:34.619Z,9.3
2018-04-26T01:22:35.349Z,9.5
2018-04-26T01:23:36.203Z,10.7
2018-04-26T01:24:36.934Z,13.4
2018-04-26T01:25:37.758Z,13.9
2018-04-26T01:26:38.478Z,12.4
2018-04-26T01:27:39.218Z,10.8
2018-04-26T01:28:39.940Z,9.9
2018-04-26T01:29:40.686Z,11.4
2018-04-26T01:30:41.400Z,12.5
2018-04-26T01:31:42.164Z,12.8
2018-04-26T01:32:42.902Z,14.2
2018-04-26T01:33:43.636Z,15.7
2018-04-26T01:34:44.373Z,13.3
2018-04-26T01:35:45.063Z,14.6
2018-04-26T01:36:45.803Z,12.4
2018-04-26T01:37:46.591Z,17.6
2018-04-26T01:38:47.339Z,13.3
2018-04-26T01:39:48.135Z,16.4
2018-04-26T01:40:49.005Z,13.7
2018-04-26T01:41:49.727Z,11.2
2018-04-26T01:42:50.499Z,16.4
2018-04-26T01:43:51.234Z,12.6
2018-04-26T01:44:51.953Z,9.9
2018-04-26T01:45:52.673Z,12.4
2018-04-26T01:46:53.399Z,15.4
2018-04-26T01:47:54.133Z,17.8
2018-04-26T01:48:54.873Z,10.8
2018-04-26T01:49:55.585Z,10.2
2018-04-26T01:50:56.479Z,11.0
2018-04-26T01:51:57.213Z,13.1
2018-04-26T01:52:58.019Z,17.3
2018-04-26T01:53:58.750Z,15.4
2018-04-26T01:54:59.484Z,13.8
2018-04-26T01:56:00.217Z,9.8
2018-04-26T01:57:00.950Z,15.3
2018-04-26T01:58:01.758Z,13.6
2018-04-26T01:59:02.487Z,11.4
2018-04-26T02:00:03.216Z,20.3
2018-04-26T02:01:03.929Z,13.5
2018-04-26T02:02:04.647Z,18.3
2018-04-26T02:03:05.369Z,14.4
2018-04-26T02:04:06.102Z,14.2
2018-04-26T02:05:06.814Z,14.7
2018-04-26T02:06:07.555Z,14.4
2018-04-26T02:07:08.339Z,16.2
2018-04-26T02:08:09.078Z,14.9
2018-04-26T02:09:09.799Z,14.8
2018-04-26T02:10:10.543Z,15.1
2018-04-26T02:11:11.276Z,11.7
2018-04-26T02:12:12.003Z,14.9
2018-04-26T02:13:12.764Z,11.8
2018-04-26T02:14:13.479Z,13.8
2018-04-26T02:15:14.222Z,13.0
2018-04-26T02:16:14.957Z,15.1
2018-04-26T02:17:15.789Z,14.6
2018-04-26T02:18:16.518Z,14.0
2018-04-26T02:19:17.259Z,16.9
2018-04-26T02:20:17.977Z,12.9
2018-04-26T02:21:18.707Z,14.6
2018-04-26T02:22:19.494Z,15.9
2018-04-26T02:23:20.214Z,11.0
2018-04-26T02:24:21.028Z,12.1
2018-04-26T02:25:21.841Z,10.0
2018-04-26T02:26:22.558Z,12.1
2018-04-26T02:27:23.787Z,16.4
2018-04-26T02:28:25.687Z,18.5
2018-04-26T02:29:27.396Z,22.1
2018-04-26T02:30:29.326Z,13.8
2018-04-26T02:31:30.386Z,11.1
2018-04-26T02:32:31.239Z,17.5
2018-04-26T02:33:31.970Z,13.2
2018-04-26T02:34:32.702Z,9.5
2018-04-26T02:35:33.427Z,15.2
2018-04-26T02:36:34.140Z,12.6
2018-04-26T02:37:34.861Z,16.2
2018-04-26T02:38:35.578Z,16.7
2018-04-26T02:39:36.311Z,13.6
2018-04-26T02:40:37.148Z,14.6
2018-04-26T02:41:37.874Z,9.8
2018-04-26T02:42:38.587Z,18.7
2018-04-26T02:43:39.320Z,13.7
2018-04-26T02:44:40.052Z,16.2
2018-04-26T02:45:40.773Z,11.6
2018-04-26T02:46:41.609Z,16.4
2018-04-26T02:47:42.433Z,14.8
2018-04-26T02:48:43.261Z,20.1
2018-04-26T02:49:43.997Z,15.6
2018-04-26T02:50:44.741Z,20.3
2018-04-26T02:51:45.556Z,20.0
2018-04-26T02:52:46.342Z,15.8
2018-04-26T02:53:47.169Z,14.7
2018-04-26T02:54:47.954Z,16.4
2018-04-26T02:55:48.695Z,15.5
2018-04-26T02:56:49.504Z,20.0
2018-04-26T02:57:50.235Z,15.1
2018-04-26T02:58:51.037Z,15.0
2018-04-26T02:59:51.880Z,17.2
2018-04-26T03:00:52.658Z,16.6
2018-04-26T03:01:53.391Z,14.9
2018-04-26T03:02:54.086Z,15.9
2018-04-26T03:03:54.831Z,13.6
2018-04-26T03:04:55.562Z,16.5
2018-04-26T03:05:56.339Z,11.9
2018-04-26T03:06:57.055Z,14.5
2018-04-26T03:07:57.896Z,19.8
2018-04-26T03:08:58.668Z,14.3
2018-04-26T03:09:59.418Z,19.5
2018-04-26T03:11:00.153Z,18.1
2018-04-26T03:12:00.869Z,17.8
2018-04-26T03:13:01.955Z,17.1
2018-04-26T03:14:02.678Z,21.4
2018-04-26T03:15:03.407Z,17.3
2018-04-26T03:16:04.145Z,18.2
2018-04-26T03:17:04.942Z,24.4
2018-04-26T03:18:05.786Z,21.2
2018-04-26T03:19:06.578Z,23.3
2018-04-26T03:20:07.320Z,28.9
2018-04-26T03:21:08.060Z,24.1
2018-04-26T03:22:08.795Z,29.8
2018-04-26T03:23:09.716Z,30.8
2018-04-26T03:24:10.496Z,28.8
2018-04-26T03:25:11.221Z,32.3
2018-04-26T03:26:12.015Z,28.3
2018-04-26T03:27:12.836Z,28.5
2018-04-26T03:28:13.738Z,32.1
2018-04-26T03:29:14.482Z,40.9
2018-04-26T03:30:15.216Z,41.0
2018-04-26T03:31:16.098Z,37.4
2018-04-26T03:32:16.730Z,28.0
2018-04-26T03:33:17.546Z,36.4
2018-04-26T03:34:18.350Z,36.8
2018-04-26T03:35:19.100Z,34.4
2018-04-26T03:36:19.898Z,28.9
2018-04-26T03:37:20.628Z,24.4
2018-04-26T03:38:21.352Z,28.1
2018-04-26T03:39:22.085Z,35.3
2018-04-26T03:40:22.819Z,37.2
2018-04-26T03:41:23.548Z,34.3
2018-04-26T03:42:24.339Z,42.2
2018-04-26T03:43:25.138Z,35.6
2018-04-26T03:44:25.963Z,31.9
2018-04-26T03:45:26.682Z,41.8
2018-04-26T03:46:27.417Z,29.8
2018-04-26T03:47:28.249Z,40.0
2018-04-26T03:48:28.963Z,36.6
2018-04-26T03:49:29.765Z,30.0
2018-04-26T03:50:30.497Z,24.6
2018-04-26T03:51:31.257Z,24.8
2018-04-26T03:52:32.065Z,30.1
2018-04-26T03:53:32.810Z,23.5
2018-04-26T03:54:33.590Z,21.0
2018-04-26T03:55:34.336Z,21.7
2018-04-26T03:56:35.064Z,22.6
2018-04-26T03:57:35.791Z,24.4
2018-04-26T03:58:36.620Z,21.0
2018-04-26T03:59:37.431Z,24.9
2018-04-26T04:00:38.151Z,22.4
2018-04-26T04:01:39.050Z,27.2
2018-04-26T04:02:39.777Z,28.2
2018-04-26T04:03:40.595Z,34.9
2018-04-26T04:04:41.324Z,25.3
2018-04-26T04:05:42.061Z,40.1
2018-04-26T04:06:42.850Z,23.0
2018-04-26T04:07:43.588Z,32.0
2018-04-26T04:08:44.403Z,35.0
2018-04-26T04:09:45.191Z,28.1
2018-04-26T04:10:46.004Z,29.5
2018-04-26T04:11:46.743Z,34.5
2018-04-26T04:12:47.481Z,31.7
2018-04-26T04:13:48.296Z,34.3
2018-04-26T04:14:48.984Z,30.1
2018-04-26T04:15:49.693Z,23.2
2018-04-26T04:16:50.415Z,19.7
2018-04-26T04:17:51.159Z,24.9
2018-04-26T04:18:51.907Z,26.4
2018-04-26T04:19:52.677Z,26.4
2018-04-26T04:20:53.412Z,20.9
2018-04-26T04:21:54.139Z,28.5
2018-04-26T04:22:54.889Z,23.5
2018-04-26T04:23:55.634Z,26.9
2018-04-26T04:24:56.356Z,22.1
2018-04-26T04:25:57.082Z,27.4
2018-04-26T04:26:57.761Z,28.2
2018-04-26T04:27:58.521Z,20.8
2018-04-26T04:28:59.249Z,22.3
2018-04-26T04:29:59.988Z,21.1
2018-04-26T04:31:00.718Z,23.4
2018-04-26T04:32:01.540Z,24.3
2018-04-26T04:33:02.274Z,27.8
2018-04-26T04:34:03.019Z,30.0
2018-04-26T04:35:03.759Z,25.3
2018-04-26T04:36:04.499Z,26.7
2018-04-26T04:37:05.295Z,25.5
2018-04-26T04:38:06.127Z,29.4
2018-04-26T04:39:06.900Z,21.6
2018-04-26T04:40:07.575Z,23.3
2018-04-26T04:41:08.312Z,15.9
2018-04-26T04:42:09.086Z,23.0
2018-04-26T04:43:09.810Z,21.9
2018-04-26T04:44:10.540Z,19.5
2018-04-26T04:45:11.305Z,19.5
2018-04-26T04:46:12.008Z,20.5
2018-04-26T04:47:12.733Z,14.7
2018-04-26T04:48:13.455Z,16.6
2018-04-26T04:49:14.255Z,19.8
2018-04-26T04:50:14.996Z,11.6
2018-04-26T04:51:15.723Z,9.9
2018-04-26T04:52:16.452Z,14.0
2018-04-26T04:53:17.208Z,10.2
2018-04-26T04:54:18.006Z,7.4
2018-04-26T04:55:18.835Z,6.5
2018-04-26T04:56:19.561Z,8.6
2018-04-26T04:57:20.304Z,6.5
2018-04-26T04:58:21.059Z,6.5
2018-04-26T04:59:21.786Z,4.9
2018-04-26T05:00:22.517Z,5.1
2018-04-26T05:01:23.240Z,7.2
2018-04-26T05:02:23.974Z,5.6
2018-04-26T05:03:24.689Z,4.5
2018-04-26T05:04:25.448Z,5.1
2018-04-26T05:05:26.230Z,4.6
2018-04-26T05:06:27.036Z,4.2
2018-04-26T05:07:27.913Z,5.4
2018-04-26T05:08:28.576Z,5.0
2018-04-26T05:09:29.298Z,6.1
2018-04-26T05:10:30.139Z,4.6
2018-04-26T05:11:30.878Z,11.1
2018-04-26T05:12:31.594Z,5.1
2018-04-26T05:13:32.355Z,5.3
2018-04-26T05:14:33.077Z,4.7
2018-04-26T05:15:33.919Z,5.9
2018-04-26T05:16:34.666Z,5.5
2018-04-26T05:17:35.431Z,4.7
2018-04-26T05:18:36.208Z,4.6
2018-04-26T05:19:37.056Z,7.8
2018-04-26T05:20:37.730Z,5.2
2018-04-26T05:21:38.519Z,5.7
2018-04-26T05:22:39.291Z,6.1
2018-04-26T05:23:40.010Z,4.6
2018-04-26T05:24:40.754Z,4.2
2018-04-26T05:25:41.573Z,4.3
2018-04-26T05:26:42.293Z,3.7
2018-04-26T05:27:43.520Z,3.7
2018-04-26T05:28:44.324Z,4.2
2018-04-26T05:29:45.061Z,4.0
2018-04-26T05:30:45.800Z,5.5
2018-04-26T05:31:46.528Z,4.0
2018-04-26T05:32:47.271Z,3.3
2018-04-26T05:33:48.033Z,3.8
2018-04-26T05:34:48.777Z,3.8
2018-04-26T05:35:49.501Z,3.8
2018-04-26T05:36:50.249Z,4.4
2018-04-26T05:37:51.058Z,4.5
2018-04-26T05:38:51.769Z,4.7
2018-04-26T05:39:52.642Z,4.7
2018-04-26T05:40:53.317Z,4.1
2018-04-26T05:41:54.041Z,4.0
2018-04-26T05:42:54.779Z,3.7
2018-04-26T05:43:55.514Z,6.1
2018-04-26T05:44:56.652Z,4.7
2018-04-26T05:45:57.438Z,10.7
2018-04-26T05:46:58.160Z,9.7
2018-04-26T05:47:58.889Z,7.6
2018-04-26T05:48:59.629Z,8.3
2018-04-26T05:50:00.538Z,6.2
2018-04-26T05:51:01.315Z,4.7
2018-04-26T05:52:02.108Z,7.1
2018-04-26T05:53:02.846Z,4.6
2018-04-26T05:54:03.569Z,7.8
2018-04-26T05:55:04.361Z,6.2
2018-04-26T05:56:05.193Z,5.8
2018-04-26T05:57:05.903Z,5.1
2018-04-26T05:58:06.739Z,6.6
2018-04-26T05:59:07.485Z,7.2
2018-04-26T06:00:08.349Z,7.0
2018-04-26T06:01:09.065Z,6.7
2018-04-26T06:02:09.806Z,5.6
2018-04-26T06:03:10.631Z,5.9
2018-04-26T06:04:11.424Z,4.8
2018-04-26T06:05:12.191Z,5.1
2018-04-26T06:06:12.927Z,11.2
2018-04-26T06:07:13.657Z,10.8
2018-04-26T06:08:14.380Z,10.7
2018-04-26T06:09:15.110Z,5.7
2018-04-26T06:10:16.015Z,7.3
2018-04-26T06:11:16.764Z,8.2
2018-04-26T06:12:17.475Z,6.3
2018-04-26T06:13:18.261Z,7.3
2018-04-26T06:14:19.078Z,6.5
2018-04-26T06:15:20.433Z,6.6
2018-04-26T06:16:21.917Z,6.3
2018-04-26T06:17:23.626Z,6.5
2018-04-26T06:18:24.691Z,11.5
2018-04-26T06:19:26.594Z,7.2
2018-04-26T06:20:27.620Z,7.1
2018-04-26T06:21:29.098Z,8.2
2018-04-26T06:22:29.789Z,6.5
2018-04-26T06:23:30.622Z,10.8
2018-04-26T06:24:32.172Z,8.9
2018-04-26T06:25:33.230Z,6.6
2018-04-26T06:26:35.215Z,9.5
2018-04-26T06:27:36.878Z,8.1
2018-04-26T06:28:37.564Z,6.9
2018-04-26T06:29:38.400Z,9.7
2018-04-26T06:30:39.167Z,9.3
2018-04-26T06:31:39.918Z,10.5
2018-04-26T06:32:40.672Z,11.8
2018-04-26T06:33:41.428Z,8.9
2018-04-26T06:34:42.277Z,7.3
2018-04-26T06:35:43.009Z,9.9
2018-04-26T06:36:43.800Z,9.8
2018-04-26T06:37:44.606Z,10.6
2018-04-26T06:38:45.335Z,7.4
2018-04-26T06:39:46.173Z,7.8
2018-04-26T06:40:46.918Z,10.3
2018-04-26T06:41:47.633Z,9.1
2018-04-26T06:42:48.381Z,7.2
2018-04-26T06:43:49.197Z,7.1
2018-04-26T06:44:50.021Z,6.8
2018-04-26T06:45:50.763Z,9.7
2018-04-26T06:46:51.520Z,7.2
2018-04-26T06:47:52.372Z,8.7
2018-04-26T06:48:53.052Z,11.5
2018-04-26T06:49:53.787Z,8.1
2018-04-26T06:50:54.520Z,8.8
2018-04-26T06:51:55.259Z,9.0
2018-04-26T06:52:55.982Z,10.8
2018-04-26T06:53:56.753Z,8.5
2018-04-26T06:54:57.588Z,7.5
2018-04-26T06:55:58.331Z,9.0
2018-04-26T06:56:59.062Z,9.1
2018-04-26T06:57:59.800Z,12.2
2018-04-26T06:59:00.747Z,11.0
2018-04-26T07:00:01.424Z,12.5
2018-04-26T07:01:02.151Z,10.1
2018-04-26T07:02:02.882Z,11.8
2018-04-26T07:03:03.606Z,9.4
2018-04-26T07:04:04.340Z,12.0
2018-04-26T07:05:05.080Z,9.7
2018-04-26T07:06:05.817Z,13.6
2018-04-26T07:07:06.571Z,12.8
2018-04-26T07:08:07.339Z,9.0
2018-04-26T07:09:08.066Z,13.1
2018-04-26T07:10:08.883Z,9.8
2018-04-26T07:11:09.615Z,14.1
2018-04-26T07:12:10.443Z,9.8
2018-04-26T07:13:11.147Z,11.1
2018-04-26T07:14:11.930Z,10.6
2018-04-26T07:15:12.674Z,10.7
2018-04-26T07:16:13.518Z,10.6
2018-04-26T07:17:14.254Z,10.2
2018-04-26T07:18:14.992Z,10.8
2018-04-26T07:19:15.718Z,10.0
2018-04-26T07:20:16.459Z,11.5
2018-04-26T07:21:17.288Z,13.5
2018-04-26T07:22:18.063Z,10.0
2018-04-26T07:23:18.786Z,9.8
2018-04-26T07:24:19.519Z,11.5
2018-04-26T07:25:20.312Z,16.1
2018-04-26T07:26:21.044Z,12.7
2018-04-26T07:27:21.842Z,9.5
2018-04-26T07:28:22.577Z,15.6
2018-04-26T07:29:23.301Z,9.6
2018-04-26T07:30:24.140Z,12.8
2018-04-26T07:31:24.866Z,15.3
2018-04-26T07:32:25.595Z,11.7
2018-04-26T07:33:26.322Z,14.0
2018-04-26T07:34:27.059Z,12.3
2018-04-26T07:35:27.900Z,15.3
2018-04-26T07:36:28.704Z,11.3
2018-04-26T07:37:29.522Z,15.2
2018-04-26T07:38:30.237Z,16.6
2018-04-26T07:39:30.984Z,13.4
2018-04-26T07:40:31.780Z,12.2
2018-04-26T07:41:32.595Z,11.5
2018-04-26T07:42:33.403Z,15.2
2018-04-26T07:43:34.138Z,12.4
2018-04-26T07:44:34.881Z,13.8
2018-04-26T07:45:35.618Z,14.2
2018-04-26T07:46:36.405Z,15.2
2018-04-26T07:47:37.144Z,13.8
2018-04-26T07:48:37.872Z,11.7
2018-04-26T07:49:38.666Z,11.3
2018-04-26T07:50:39.396Z,14.0
2018-04-26T07:51:40.165Z,9.4
2018-04-26T07:52:40.952Z,15.1
2018-04-26T07:53:41.704Z,10.6
2018-04-26T07:54:42.446Z,13.8
2018-04-26T07:55:43.238Z,11.1
2018-04-26T07:56:44.382Z,10.1
2018-04-26T07:57:45.122Z,9.1
2018-04-26T07:58:45.861Z,12.7
2018-04-26T07:59:46.602Z,9.1
2018-04-26T08:00:47.374Z,7.0
2018-04-26T08:01:48.408Z,9.5
2018-04-26T08:02:48.967Z,7.0
2018-04-26T08:03:49.715Z,9.2
2018-04-26T08:04:50.513Z,7.1
2018-04-26T08:05:51.242Z,8.4
2018-04-26T08:06:51.984Z,6.9
2018-04-26T08:07:52.847Z,8.9
2018-04-26T08:08:53.623Z,11.1
2018-04-26T08:09:54.422Z,7.4
2018-04-26T08:10:55.146Z,8.6
2018-04-26T08:11:55.883Z,7.8
2018-04-26T08:12:56.617Z,8.1
2018-04-26T08:13:57.355Z,10.1
2018-04-26T08:14:58.085Z,12.6
2018-04-26T08:15:58.831Z,6.5
2018-04-26T08:16:59.960Z,7.4
2018-04-26T08:18:00.705Z,8.7
2018-04-26T08:19:01.443Z,10.3
2018-04-26T08:20:02.173Z,10.7
2018-04-26T08:21:02.926Z,7.9
2018-04-26T08:22:03.672Z,7.0
2018-04-26T08:23:04.409Z,12.3
2018-04-26T08:24:05.154Z,9.3
2018-04-26T08:25:06.020Z,7.9
2018-04-26T08:26:06.716Z,8.9
2018-04-26T08:27:07.464Z,8.7
2018-04-26T08:28:08.196Z,13.7
2018-04-26T08:29:08.924Z,8.7
2018-04-26T08:30:09.757Z,15.6
2018-04-26T08:31:11.556Z,12.1
2018-04-26T08:32:13.585Z,11.6
2018-04-26T08:33:14.727Z,11.3
2018-04-26T08:34:15.941Z,8.6
2018-04-26T08:35:17.834Z,8.9
2018-04-26T08:36:18.838Z,8.0
2018-04-26T08:37:19.970Z,12.8
2018-04-26T08:38:21.270Z,9.0
2018-04-26T08:39:23.644Z,12.3
2018-04-26T08:40:24.542Z,7.5
2018-04-26T08:41:25.292Z,9.7
2018-04-26T08:42:26.043Z,11.1
2018-04-26T08:43:26.778Z,7.3
2018-04-26T08:44:27.859Z,11.4
2018-04-26T08:45:28.633Z,10.3
2018-04-26T08:46:29.332Z,9.7
2018-04-26T08:47:30.069Z,8.0
2018-04-26T08:48:30.799Z,7.0
2018-04-26T08:49:31.550Z,8.1
2018-04-26T08:50:32.288Z,6.6
2018-04-26T08:51:33.145Z,8.4
2018-04-26T08:52:33.998Z,7.2
2018-04-26T08:53:34.732Z,8.3
2018-04-26T08:54:35.513Z,9.5
2018-04-26T08:55:36.294Z,16.7
2018-04-26T08:56:37.033Z,5.7
2018-04-26T08:57:37.803Z,7.6
2018-04-26T08:58:38.620Z,7.3
2018-04-26T08:59:39.406Z,7.7
2018-04-26T09:00:40.105Z,5.4
2018-04-26T09:01:40.841Z,5.9
2018-04-26T09:02:41.597Z,5.0
2018-04-26T09:03:42.404Z,7.0
2018-04-26T09:04:43.199Z,8.0
2018-04-26T09:05:44.003Z,6.0
2018-04-26T09:06:44.913Z,8.0
2018-04-26T09:07:45.541Z,5.3
2018-04-26T09:08:46.268Z,7.1
2018-04-26T09:09:47.012Z,6.9
2018-04-26T09:10:47.773Z,6.5
2018-04-26T09:11:48.550Z,7.7
2018-04-26T09:12:49.285Z,9.5
2018-04-26T09:13:50.062Z,5.7
2018-04-26T09:14:50.792Z,6.0
2018-04-26T09:15:51.545Z,5.6
2018-04-26T09:16:52.261Z,5.0
2018-04-26T09:17:52.993Z,6.3
2018-04-26T09:18:53.742Z,4.0
2018-04-26T09:19:54.537Z,4.0
2018-04-26T09:20:55.279Z,10.2
2018-04-26T09:21:56.186Z,5.8
2018-04-26T09:22:56.851Z,4.6
2018-04-26T09:23:57.603Z,6.0
2018-04-26T09:24:58.392Z,7.2
2018-04-26T09:25:59.120Z,6.3
2018-04-26T09:26:59.871Z,4.3
2018-04-26T09:28:00.594Z,5.8
2018-04-26T09:29:01.354Z,7.6
2018-04-26T09:30:02.131Z,7.2
2018-04-26T09:31:02.834Z,12.3
2018-04-26T09:32:03.603Z,8.4
2018-04-26T09:33:04.428Z,4.7
2018-04-26T09:34:05.207Z,5.7
2018-04-26T09:35:06.035Z,6.2
2018-04-26T09:36:06.820Z,4.6
2018-04-26T09:37:07.593Z,3.7
2018-04-26T09:38:08.325Z,4.5
2018-04-26T09:39:09.168Z,6.5
2018-04-26T09:40:09.900Z,4.2
2018-04-26T09:41:10.645Z,7.9
2018-04-26T09:42:11.371Z,4.7
2018-04-26T09:43:12.096Z,4.4
2018-04-26T09:44:13.313Z,4.0
2018-04-26T09:45:14.198Z,5.4
2018-04-26T09:46:14.946Z,5.6
2018-04-26T09:47:15.685Z,9.6
2018-04-26T09:48:16.486Z,6.1
2018-04-26T09:49:17.238Z,5.2
2018-04-26T09:50:18.052Z,5.4
2018-04-26T09:51:18.784Z,11.3
2018-04-26T09:52:19.567Z,9.9
2018-04-26T09:53:20.299Z,4.9
2018-04-26T09:54:21.030Z,2.9
2018-04-26T09:55:21.779Z,4.2
2018-04-26T09:56:22.512Z,4.1
2018-04-26T09:57:23.356Z,11.4
2018-04-26T09:58:24.083Z,5.4
2018-04-26T09:59:24.836Z,8.7
2018-04-26T10:00:25.575Z,9.6
2018-04-26T10:01:26.374Z,7.4
2018-04-26T10:02:27.139Z,5.4
2018-04-26T10:03:27.879Z,5.0
2018-04-26T10:04:28.687Z,4.3
2018-04-26T10:05:29.424Z,7.5
2018-04-26T10:06:30.305Z,6.2
2018-04-26T10:07:31.095Z,3.9
2018-04-26T10:08:31.821Z,3.1
2018-04-26T10:09:32.643Z,5.9
2018-04-26T10:10:33.440Z,3.7
2018-04-26T10:11:34.320Z,5.6
2018-04-26T10:12:35.031Z,5.6
2018-04-26T10:13:35.764Z,4.2
2018-04-26T10:14:36.605Z,4.0
2018-04-26T10:15:37.309Z,7.7
2018-04-26T10:16:38.060Z,4.0
2018-04-26T10:17:38.843Z,6.9
2018-04-26T10:18:39.595Z,5.9
2018-04-26T10:19:40.409Z,3.2
2018-04-26T10:20:41.165Z,4.1
2018-04-26T10:21:41.899Z,7.2
2018-04-26T10:22:42.697Z,6.3
2018-04-26T10:23:43.539Z,2.2
2018-04-26T10:24:44.325Z,4.8
2018-04-26T10:25:45.421Z,5.2
2018-04-26T10:26:46.187Z,4.0
2018-04-26T10:27:46.933Z,1.8
2018-04-26T10:28:47.753Z,2.5
2018-04-26T10:29:48.482Z,3.3
2018-04-26T10:30:49.586Z,3.6
2018-04-26T10:31:50.372Z,5.6
2018-04-26T10:32:51.102Z,3.2
2018-04-26T10:33:51.843Z,6.0
2018-04-26T10:34:52.578Z,3.4
2018-04-26T10:35:53.395Z,6.3
2018-04-26T10:36:54.527Z,3.2
2018-04-26T10:37:55.318Z,4.8
2018-04-26T10:38:56.055Z,6.6
2018-04-26T10:39:56.807Z,5.8
2018-04-26T10:40:57.539Z,3.0
2018-04-26T10:41:58.257Z,8.9
2018-04-26T10:42:59.003Z,3.4
2018-04-26T10:43:59.741Z,5.9
2018-04-26T10:45:00.481Z,7.2
2018-04-26T10:46:01.230Z,5.8
2018-04-26T10:47:01.964Z,2.4
2018-04-26T10:48:03.041Z,4.3
2018-04-26T10:49:03.718Z,3.5
2018-04-26T10:50:04.464Z,7.4
2018-04-26T10:51:05.237Z,4.3
2018-04-26T10:52:06.094Z,6.2
2018-04-26T10:53:06.877Z,3.8
2018-04-26T10:54:07.682Z,2.2
2018-04-26T10:55:08.424Z,4.2
2018-04-26T10:56:09.226Z,6.3
2018-04-26T10:57:10.044Z,2.3
2018-04-26T10:58:10.780Z,3.1
2018-04-26T10:59:11.523Z,5.5
2018-04-26T11:00:12.416Z,4.6
2018-04-26T11:01:13.050Z,5.1
2018-04-26T11:02:13.782Z,3.2
2018-04-26T11:03:14.527Z,4.6
2018-04-26T11:04:15.278Z,4.1
2018-04-26T11:05:16.020Z,7.1
2018-04-26T11:06:16.826Z,6.6
2018-04-26T11:07:17.615Z,1.7
2018-04-26T11:08:18.359Z,6.0
2018-04-26T11:09:19.217Z,3.6
2018-04-26T11:10:20.001Z,3.8
2018-04-26T11:11:20.811Z,2.1
2018-04-26T11:12:21.480Z,3.6
2018-04-26T11:13:22.221Z,4.4
2018-04-26T11:14:23.025Z,4.7
2018-04-26T11:15:23.814Z,8.0
2018-04-26T11:16:24.543Z,2.0
2018-04-26T11:17:25.285Z,5.2
2018-04-26T11:18:26.082Z,6.2
2018-04-26T11:19:26.860Z,3.9
2018-04-26T11:20:27.632Z,4.0
2018-04-26T11:21:28.369Z,6.7
2018-04-26T11:22:29.410Z,4.8
2018-04-26T11:23:30.158Z,2.8
2018-04-26T11:24:31.096Z,4.3
2018-04-26T11:25:31.744Z,6.0
2018-04-26T11:26:32.690Z,2.4
2018-04-26T11:27:33.638Z,1.8
2018-04-26T11:28:34.385Z,1.8
2018-04-26T11:29:35.128Z,1.1
2018-04-26T11:30:35.890Z,3.7
2018-04-26T11:31:36.644Z,2.7
2018-04-26T11:32:37.333Z,4.4
2018-04-26T11:33:38.067Z,2.7
2018-04-26T11:34:38.803Z,2.1
2018-04-26T11:35:39.603Z,3.7
2018-04-26T11:36:40.407Z,3.1
2018-04-26T11:37:41.188Z,4.6
2018-04-26T11:38:41.990Z,4.8
2018-04-26T11:39:42.720Z,2.3
2018-04-26T11:40:43.465Z,3.8
2018-04-26T11:41:44.260Z,4.6
2018-04-26T11:42:44.999Z,4.2
2018-04-26T11:43:46.220Z,4.3
2018-04-26T11:44:46.961Z,7.4
2018-04-26T11:45:47.702Z,2.8
2018-04-26T11:46:48.474Z,4.3
2018-04-26T11:47:49.198Z,4.4
2018-04-26T11:48:50.004Z,7.3
2018-04-26T11:49:50.741Z,3.2
2018-04-26T11:50:51.477Z,3.4
2018-04-26T11:51:52.219Z,5.3
2018-04-26T11:52:52.953Z,4.9
2018-04-26T11:53:53.678Z,5.3
2018-04-26T11:54:54.423Z,4.3
2018-04-26T11:55:55.168Z,4.6
2018-04-26T11:56:55.915Z,4.6
2018-04-26T11:57:56.656Z,8.0
2018-04-26T11:58:57.438Z,6.6
2018-04-26T11:59:58.571Z,11.5
2018-04-26T12:00:59.312Z,7.4
2018-04-26T12:02:00.058Z,6.5
2018-04-26T12:03:00.859Z,2.3
2018-04-26T12:04:01.675Z,2.3
2018-04-26T12:05:02.421Z,2.4
2018-04-26T12:06:03.163Z,4.9
2018-04-26T12:07:03.914Z,1.7
2018-04-26T12:08:04.742Z,5.7
2018-04-26T12:09:05.485Z,2.6
2018-04-26T12:10:06.227Z,5.5
2018-04-26T12:11:07.023Z,16.2
2018-04-26T12:12:07.761Z,2.6
2018-04-26T12:13:08.575Z,5.2
2018-04-26T12:14:09.280Z,4.4
2018-04-26T12:15:10.007Z,2.7
2018-04-26T12:16:10.751Z,7.3
2018-04-26T12:17:11.496Z,5.6
2018-04-26T12:18:12.300Z,3.8
2018-04-26T12:19:13.037Z,5.6
2018-04-26T12:20:13.804Z,2.8
2018-04-26T12:21:14.595Z,2.9
2018-04-26T12:22:15.413Z,3.7
2018-04-26T12:23:16.149Z,4.8
2018-04-26T12:24:16.893Z,7.5
2018-04-26T12:25:18.023Z,2.4
2018-04-26T12:26:18.834Z,5.4
2018-04-26T12:27:19.647Z,5.0
2018-04-26T12:28:20.424Z,8.4
2018-04-26T12:29:21.223Z,2.9
2018-04-26T12:30:21.900Z,2.6
2018-04-26T12:31:22.655Z,1.9
2018-04-26T12:32:23.460Z,3.9
2018-04-26T12:33:24.204Z,2.3
2018-04-26T12:34:25.032Z,3.7
2018-04-26T12:35:25.862Z,1.8
2018-04-26T12:36:26.598Z,3.3
2018-04-26T12:37:27.344Z,1.7
2018-04-26T12:38:28.156Z,1.7
2018-04-26T12:39:28.958Z,2.5
2018-04-26T12:40:29.784Z,3.0
2018-04-26T12:41:30.583Z,0.9
2018-04-26T12:42:31.394Z,3.6
2018-04-26T12:43:32.124Z,2.3
2018-04-26T12:44:32.868Z,2.0
2018-04-26T12:45:33.604Z,3.0
2018-04-26T12:46:34.416Z,3.0
2018-04-26T12:47:35.164Z,3.7
2018-04-26T12:48:35.900Z,1.9
2018-04-26T12:49:36.635Z,3.4
2018-04-26T12:50:37.378Z,4.1
2018-04-26T12:51:38.102Z,6.1
2018-04-26T12:52:38.907Z,2.3
2018-04-26T12:53:39.657Z,1.8
2018-04-26T12:54:40.493Z,1.5
2018-04-26T12:55:41.233Z,3.2
2018-04-26T12:56:42.043Z,3.1
2018-04-26T12:57:42.792Z,2.1
2018-04-26T12:58:43.529Z,2.4
2018-04-26T12:59:44.275Z,1.7
2018-04-26T13:00:45.012Z,1.9
2018-04-26T13:01:45.832Z,4.2
2018-04-26T13:02:46.573Z,2.7
2018-04-26T13:03:47.290Z,2.4
2018-04-26T13:04:48.060Z,2.3
2018-04-26T13:05:48.799Z,3.2
2018-04-26T13:06:49.544Z,2.6
2018-04-26T13:07:50.407Z,1.8
2018-04-26T13:08:51.087Z,1.6
2018-04-26T13:09:52.172Z,3.5
2018-04-26T13:10:52.908Z,1.6
2018-04-26T13:11:53.644Z,3.3
2018-04-26T13:12:54.454Z,3.4
2018-04-26T13:13:55.202Z,1.4
2018-04-26T13:14:56.242Z,5.2
2018-04-26T13:15:56.982Z,1.7
2018-04-26T13:16:57.730Z,3.1
2018-04-26T13:17:58.503Z,3.2
2018-04-26T13:18:59.237Z,1.9
2018-04-26T13:20:00.075Z,2.6
2018-04-26T13:21:00.904Z,3.3
2018-04-26T13:22:01.639Z,3.6
2018-04-26T13:23:02.432Z,7.4
2018-04-26T13:24:03.162Z,3.4
2018-04-26T13:25:03.977Z,3.6
2018-04-26T13:26:04.723Z,6.0
2018-04-26T13:27:05.485Z,6.0
2018-04-26T13:28:06.208Z,5.0
2018-04-26T13:29:06.940Z,3.3
2018-04-26T13:30:07.689Z,5.1
2018-04-26T13:31:08.422Z,5.0
2018-04-26T13:32:09.228Z,4.8
2018-04-26T13:33:09.971Z,4.1
2018-04-26T13:34:10.694Z,6.1
2018-04-26T13:35:11.441Z,4.7
2018-04-26T13:36:12.198Z,4.6
2018-04-26T13:37:12.983Z,8.4
2018-04-26T13:38:13.809Z,5.1
2018-04-26T13:39:14.576Z,5.6
2018-04-26T13:40:15.391Z,4.7
2018-04-26T13:41:16.138Z,8.2
2018-04-26T13:42:17.281Z,3.3
2018-04-26T13:43:18.013Z,8.1
2018-04-26T13:44:18.753Z,8.7
2018-04-26T13:45:19.533Z,16.7